Brunswick, New York
Current Conditions -  °F | °C
As of 8:51 AM on Monday 22 Dec 2014 (Local Time) from KALB Reporting Station
Light Snow Light Snow  
Wind Chill: 30°   Ceiling: 2000
Heat Index: 30°   Visibility: 10mi
Dew Point: 24°   Wind: 3mph
Humidity: 79%   Direction: 360°N
Pressure: 30.36"   Gusts: NA
Location:  42.7478°N, 73.6049°W
Report Text: KALB 221351Z 36003KT 10SM -SN BKN020 OVC038 M01/M04 A3036 RMK AO2 SNE17B48 SLP284 PCPN VRY LGT P0000 T10111044
Loading
Personal Weather Stations






























Interactive Weather Map New forecast layout! Learn more

10-Day Weather Forecast

Advertisements
Track Severe Weather on mobile